createdAt,value
2018-08-28T00:00:00.724Z,61.30
2018-08-28T00:02:32.195Z,62.30
2018-08-28T00:05:04.827Z,62.00
2018-08-28T00:07:36.846Z,61.90
2018-08-28T00:10:09.517Z,62.60
2018-08-28T00:12:41.245Z,63.20
2018-08-28T00:15:13.297Z,62.50
2018-08-28T00:17:44.877Z,62.80
2018-08-28T00:20:16.529Z,63.20
2018-08-28T00:22:47.911Z,63.60
2018-08-28T00:25:21.300Z,63.50
2018-08-28T00:27:51.618Z,63.60
2018-08-28T00:30:22.270Z,63.30
2018-08-28T00:32:52.854Z,62.60
2018-08-28T00:35:24.439Z,61.90
2018-08-28T00:37:55.469Z,60.90
2018-08-28T00:40:27.379Z,60.90
2018-08-28T00:42:58.539Z,59.50
2018-08-28T00:45:32.299Z,59.10
2018-08-28T00:48:09.949Z,58.20
2018-08-28T00:50:41.380Z,58.00
2018-08-28T00:53:18.369Z,58.00
2018-08-28T00:55:57.953Z,57.30
2018-08-28T00:58:29.463Z,57.30
2018-08-28T01:01:01.293Z,58.00
2018-08-28T01:03:40.470Z,58.20
2018-08-28T01:06:19.880Z,58.70
2018-08-28T01:08:59.607Z,59.00
2018-08-28T01:11:30.013Z,58.60
2018-08-28T01:14:09.886Z,58.30
2018-08-28T01:16:41.363Z,58.60
2018-08-28T01:19:12.543Z,58.20
2018-08-28T01:21:44.824Z,59.20
2018-08-28T01:24:15.893Z,59.90
2018-08-28T01:26:50.484Z,59.30
2018-08-28T01:29:30.569Z,58.80
2018-08-28T01:32:02.219Z,59.00
2018-08-28T01:34:42.327Z,59.40
2018-08-28T01:37:21.315Z,59.60
2018-08-28T01:40:01.407Z,59.70
2018-08-28T01:42:38.267Z,59.80
2018-08-28T01:45:09.957Z,60.00
2018-08-28T01:47:49.287Z,60.40
2018-08-28T01:50:19.666Z,60.60
2018-08-28T01:52:51.908Z,60.10
2018-08-28T01:55:23.138Z,60.30
2018-08-28T01:58:02.982Z,60.50
2018-08-28T02:00:40.255Z,62.20
2018-08-28T02:03:11.893Z,61.40
2018-08-28T02:05:43.424Z,61.70
2018-08-28T02:08:14.843Z,61.30
2018-08-28T02:10:55.335Z,62.00
2018-08-28T02:13:26.005Z,61.70
2018-08-28T02:15:57.786Z,61.70
2018-08-28T02:18:37.129Z,61.70
2018-08-28T02:21:08.576Z,61.30
2018-08-28T02:23:45.147Z,61.50
2018-08-28T02:26:15.989Z,61.70
2018-08-28T02:28:48.050Z,62.60
2018-08-28T02:31:25.924Z,62.80
2018-08-28T02:33:56.635Z,62.10
2018-08-28T02:36:27.976Z,62.30
2018-08-28T02:38:59.346Z,62.40
2018-08-28T02:41:30.761Z,62.50
2018-08-28T02:44:02.391Z,63.10
2018-08-28T02:46:33.795Z,61.20
2018-08-28T02:49:04.671Z,61.80
2018-08-28T02:51:43.493Z,62.30
2018-08-28T02:54:24.494Z,62.50
2018-08-28T02:57:04.133Z,62.70
2018-08-28T02:59:37.294Z,64.40
2018-08-28T03:02:08.584Z,63.60
2018-08-28T03:04:39.079Z,64.00
2018-08-28T03:07:10.796Z,64.10
2018-08-28T03:09:50.348Z,64.20
2018-08-28T03:12:21.654Z,64.00
2018-08-28T03:15:02.144Z,64.70
2018-08-28T03:17:41.617Z,64.20
2018-08-28T03:20:13.146Z,64.10
2018-08-28T03:22:44.697Z,64.50
2018-08-28T03:25:24.372Z,64.60
2018-08-28T03:28:04.080Z,64.70
2018-08-28T03:30:35.803Z,65.60
2018-08-28T03:33:08.003Z,65.60
2018-08-28T03:38:06.574Z,65.60
2018-08-28T03:40:47.091Z,66.40
2018-08-28T03:43:18.398Z,67.00
2018-08-28T03:45:49.890Z,66.90
2018-08-28T03:48:21.346Z,67.50
2018-08-28T03:51:00.892Z,67.30
2018-08-28T03:53:41.171Z,67.50
2018-08-28T03:56:12.922Z,67.40
2018-08-28T03:58:44.766Z,67.80
2018-08-28T04:01:16.778Z,67.20
2018-08-28T04:03:48.431Z,67.50
2018-08-28T04:06:20.072Z,67.30
2018-08-28T04:08:51.160Z,67.70
2018-08-28T04:11:22.670Z,68.00
2018-08-28T04:13:55.071Z,68.00
2018-08-28T04:18:52.890Z,68.20
2018-08-28T04:21:24.590Z,68.90
2018-08-28T04:23:56.200Z,68.50
2018-08-28T04:26:26.922Z,68.50
2018-08-28T04:28:58.821Z,68.30
2018-08-28T04:31:30.144Z,68.50
2018-08-28T04:34:02.511Z,69.00
2018-08-28T04:36:34.161Z,68.90
2018-08-28T04:39:06.714Z,69.60
2018-08-28T04:41:44.743Z,69.60
2018-08-28T04:44:17.355Z,69.40
2018-08-28T04:46:50.316Z,68.90
2018-08-28T04:49:29.823Z,69.50
2018-08-28T04:52:09.268Z,69.00
2018-08-28T04:54:49.546Z,68.50
2018-08-28T04:57:20.860Z,68.40
2018-08-28T05:00:00.463Z,69.00
2018-08-28T05:02:35.523Z,67.80
2018-08-28T05:05:10.246Z,69.10
2018-08-28T05:07:41.793Z,68.60
2018-08-28T05:10:12.433Z,67.80
2018-08-28T05:12:43.547Z,67.00
2018-08-28T05:15:14.046Z,66.50
2018-08-28T05:17:45.867Z,66.70
2018-08-28T05:20:16.557Z,66.50
2018-08-28T05:22:48.416Z,66.60
2018-08-28T05:25:19.936Z,67.40
2018-08-28T05:27:52.247Z,67.00
2018-08-28T05:30:24.391Z,66.80
2018-08-28T05:32:55.467Z,67.00
2018-08-28T05:35:27.608Z,67.00
2018-08-28T05:37:59.121Z,67.00
2018-08-28T05:40:29.503Z,67.90
2018-08-28T05:43:01.345Z,67.30
2018-08-28T05:45:32.447Z,66.00
2018-08-28T05:48:03.562Z,65.10
2018-08-28T05:50:40.222Z,65.60
2018-08-28T05:53:11.052Z,63.90
2018-08-28T05:55:43.330Z,62.10
2018-08-28T05:58:13.732Z,61.70
2018-08-28T06:00:44.793Z,59.20
2018-08-28T06:03:16.656Z,59.10
2018-08-28T06:05:48.029Z,56.40
2018-08-28T06:08:20.703Z,57.70
2018-08-28T06:10:52.352Z,60.00
2018-08-28T06:13:33.660Z,59.20
2018-08-28T06:16:11.658Z,58.90
2018-08-28T06:18:46.088Z,60.10
2018-08-28T06:21:26.305Z,60.70
2018-08-28T06:24:04.594Z,61.30
2018-08-28T06:26:42.963Z,60.10
2018-08-28T06:29:14.447Z,59.80
2018-08-28T06:31:44.994Z,58.50
2018-08-28T06:34:16.014Z,57.40
2018-08-28T06:36:47.082Z,57.30
2018-08-28T06:39:19.054Z,57.10
2018-08-28T06:41:51.144Z,56.50
2018-08-28T06:44:22.686Z,55.30
2018-08-28T06:46:54.694Z,55.40
2018-08-28T06:49:25.893Z,54.60
2018-08-28T06:51:57.172Z,54.50
2018-08-28T06:54:28.944Z,54.20
2018-08-28T06:57:01.965Z,54.00
2018-08-28T06:59:41.737Z,54.10
2018-08-28T07:02:13.543Z,54.90
2018-08-28T07:04:46.268Z,54.50
2018-08-28T07:07:18.234Z,53.80
2018-08-28T07:09:58.358Z,54.40
2018-08-28T07:12:38.085Z,53.80
2018-08-28T07:15:10.037Z,53.90
2018-08-28T07:17:44.867Z,54.60
2018-08-28T07:20:15.365Z,54.50
2018-08-28T07:22:45.398Z,54.90
2018-08-28T07:25:16.817Z,54.50
2018-08-28T07:27:47.657Z,54.30
2018-08-28T07:30:19.797Z,53.80
2018-08-28T07:33:00.438Z,53.60
2018-08-28T07:35:31.856Z,54.10
2018-08-28T07:38:04.520Z,53.80
2018-08-28T07:40:43.686Z,53.30
2018-08-28T07:43:23.946Z,52.60
2018-08-28T07:46:03.681Z,52.60
2018-08-28T07:48:44.656Z,52.20
2018-08-28T07:51:24.485Z,52.10
2018-08-28T07:53:57.269Z,50.60
2018-08-28T07:56:32.505Z,51.70
2018-08-28T07:59:12.401Z,51.60
2018-08-28T08:01:50.327Z,52.30
2018-08-28T08:04:31.467Z,51.80
2018-08-28T08:07:10.841Z,50.60
2018-08-28T08:09:50.742Z,51.40
2018-08-28T08:12:22.636Z,51.90
2018-08-28T08:15:01.849Z,51.80
2018-08-28T08:17:41.382Z,50.80
2018-08-28T08:20:18.085Z,51.20
2018-08-28T08:22:54.175Z,51.70
2018-08-28T08:25:33.064Z,50.90
2018-08-28T08:28:12.899Z,52.00
2018-08-28T08:30:52.593Z,51.60
2018-08-28T08:33:32.576Z,49.50
2018-08-28T08:36:12.100Z,49.20
2018-08-28T08:38:50.324Z,50.10
2018-08-28T08:41:29.732Z,50.60
2018-08-28T08:44:09.680Z,50.20
2018-08-28T08:46:49.759Z,49.10
2018-08-28T08:49:26.426Z,48.30
2018-08-28T08:52:06.989Z,47.20
2018-08-28T08:54:46.862Z,47.10
2018-08-28T08:57:27.446Z,46.50
2018-08-28T09:00:05.872Z,45.60
2018-08-28T09:02:46.236Z,46.20
2018-08-28T09:05:23.467Z,45.60
2018-08-28T09:08:00.454Z,46.10
2018-08-28T09:10:40.005Z,45.50
2018-08-28T09:13:19.115Z,45.70
2018-08-28T09:15:58.520Z,46.80
2018-08-28T09:18:38.038Z,46.90
2018-08-28T09:21:17.881Z,46.20
2018-08-28T09:23:53.941Z,45.30
2018-08-28T09:26:29.180Z,39.40
2018-08-28T09:29:08.859Z,35.70
2018-08-28T09:31:45.559Z,30.20
2018-08-28T09:34:17.317Z,26.90
2018-08-28T09:36:49.356Z,24.70
2018-08-28T09:39:25.296Z,22.80
2018-08-28T09:41:58.023Z,21.50
2018-08-28T09:44:32.625Z,21.10
2018-08-28T09:47:04.835Z,20.40
2018-08-28T09:49:41.897Z,19.80
2018-08-28T09:52:17.732Z,19.50
2018-08-28T09:54:55.976Z,18.50
2018-08-28T09:57:33.313Z,18.50
2018-08-28T10:00:14.478Z,18.50
2018-08-28T10:02:46.859Z,18.30
2018-08-28T10:05:27.098Z,18.10
2018-08-28T10:08:04.971Z,18.50
2018-08-28T10:10:40.998Z,17.80
2018-08-28T10:13:18.037Z,17.70
2018-08-28T10:15:56.677Z,17.80
2018-08-28T10:18:36.477Z,18.10
2018-08-28T10:21:16.197Z,18.10
2018-08-28T10:23:53.520Z,17.60
2018-08-28T10:26:30.215Z,17.70
2018-08-28T10:29:09.641Z,17.70
2018-08-28T10:31:48.658Z,17.50
2018-08-28T10:34:22.980Z,17.50
2018-08-28T10:36:59.559Z,17.30
2018-08-28T10:39:39.375Z,17.60
2018-08-28T10:42:18.921Z,17.80
2018-08-28T10:44:58.234Z,18.10
2018-08-28T10:47:38.380Z,17.70
2018-08-28T10:50:18.140Z,17.60
2018-08-28T10:52:58.584Z,17.90
2018-08-28T10:55:36.697Z,17.80
2018-08-28T10:58:12.960Z,18.10
2018-08-28T11:00:52.303Z,17.60
2018-08-28T11:03:31.690Z,18.00
2018-08-28T11:06:04.056Z,17.50
2018-08-28T11:08:40.390Z,18.20
2018-08-28T11:11:35.072Z,18.40
2018-08-28T11:14:21.052Z,18.00
2018-08-28T11:16:57.500Z,18.40
2018-08-28T11:19:37.389Z,18.50
2018-08-28T11:22:17.271Z,19.00
2018-08-28T11:24:53.507Z,19.10
2018-08-28T11:27:31.487Z,18.70
2018-08-28T11:30:11.884Z,18.80
2018-08-28T11:32:51.257Z,19.20
2018-08-28T11:35:27.589Z,19.20
2018-08-28T11:38:07.472Z,19.10
2018-08-28T11:40:47.555Z,19.20
2018-08-28T11:43:20.417Z,19.60
2018-08-28T11:46:00.202Z,19.50
2018-08-28T11:48:40.798Z,20.50
2018-08-28T11:51:20.727Z,20.50
2018-08-28T11:54:00.898Z,22.30
2018-08-28T11:56:35.517Z,23.50
2018-08-28T11:59:11.915Z,24.70
2018-08-28T12:01:51.173Z,26.00
2018-08-28T12:04:32.246Z,27.50
2018-08-28T12:07:08.966Z,29.20
2018-08-28T12:09:49.328Z,30.30
2018-08-28T12:12:26.544Z,31.20
2018-08-28T12:15:05.499Z,32.40
2018-08-28T12:17:45.139Z,33.30
2018-08-28T12:20:24.398Z,34.80
2018-08-28T12:23:04.093Z,33.90
2018-08-28T12:25:36.092Z,36.10
2018-08-28T12:28:13.784Z,35.70
2018-08-28T12:30:49.919Z,36.60
2018-08-28T12:33:29.474Z,35.50
2018-08-28T12:36:09.296Z,36.90
2018-08-28T12:38:46.399Z,37.50
2018-08-28T12:41:25.767Z,38.80
2018-08-28T12:44:05.870Z,38.30
2018-08-28T12:46:44.179Z,40.10
2018-08-28T12:49:23.720Z,40.20
2018-08-28T12:52:03.513Z,39.10
2018-08-28T12:54:43.372Z,41.20
2018-08-28T12:57:23.472Z,41.40
2018-08-28T13:00:02.691Z,41.10
2018-08-28T13:02:41.882Z,41.90
2018-08-28T13:05:18.817Z,41.00
2018-08-28T13:07:57.357Z,40.10
2018-08-28T13:10:37.648Z,41.00
2018-08-28T13:13:17.482Z,42.40
2018-08-28T13:15:57.150Z,41.50
2018-08-28T13:18:33.101Z,43.50
2018-08-28T13:21:13.699Z,44.40
2018-08-28T13:23:51.286Z,42.50
2018-08-28T13:26:27.436Z,42.20
2018-08-28T13:29:05.515Z,42.00
2018-08-28T13:31:45.256Z,41.70
2018-08-28T13:34:24.677Z,42.20
2018-08-28T13:37:03.787Z,43.30
2018-08-28T13:39:42.941Z,45.30
2018-08-28T13:42:22.932Z,44.60
2018-08-28T13:45:03.054Z,44.10
2018-08-28T13:47:42.782Z,42.70
2018-08-28T13:50:22.543Z,43.20
2018-08-28T13:53:01.128Z,44.40
2018-08-28T13:55:40.259Z,43.70
2018-08-28T13:58:19.434Z,44.20
2018-08-28T14:00:59.385Z,43.00
2018-08-28T14:03:35.711Z,43.70
2018-08-28T14:06:13.984Z,44.30
2018-08-28T14:08:53.705Z,42.90
2018-08-28T14:11:33.509Z,42.60
2018-08-28T14:14:05.281Z,43.30
2018-08-28T14:16:37.976Z,45.50
2018-08-28T14:19:14.738Z,44.40
2018-08-28T14:21:54.864Z,44.20
2018-08-28T14:24:35.607Z,43.40
2018-08-28T14:27:15.663Z,43.40
2018-08-28T14:29:52.902Z,43.90
2018-08-28T14:32:30.308Z,44.50
2018-08-28T14:35:07.196Z,43.00
2018-08-28T14:37:47.305Z,43.80
2018-08-28T14:40:26.987Z,44.90
2018-08-28T14:43:07.120Z,45.50
2018-08-28T14:45:47.046Z,44.70
2018-08-28T14:48:26.354Z,44.40
2018-08-28T14:51:06.310Z,45.30
2018-08-28T14:53:46.036Z,45.40
2018-08-28T14:56:26.501Z,44.40
2018-08-28T14:59:03.749Z,44.20
2018-08-28T15:01:43.042Z,44.10
2018-08-28T15:04:22.531Z,44.80
2018-08-28T15:07:02.097Z,43.70
2018-08-28T15:09:41.665Z,45.50
2018-08-28T15:12:20.927Z,45.30
2018-08-28T15:15:00.744Z,44.40
2018-08-28T15:17:38.532Z,44.70
2018-08-28T15:20:18.455Z,44.90
2018-08-28T15:22:54.392Z,45.90
2018-08-28T15:25:31.993Z,44.70
2018-08-28T15:28:11.497Z,44.90
2018-08-28T15:30:50.426Z,45.10
2018-08-28T15:33:30.039Z,45.20
2018-08-28T15:36:10.927Z,46.70
2018-08-28T15:38:51.048Z,45.10
2018-08-28T15:41:31.376Z,45.60
2018-08-28T15:44:12.039Z,45.40
2018-08-28T15:46:51.774Z,46.20
2018-08-28T15:49:28.272Z,45.50
2018-08-28T15:52:05.270Z,45.60
2018-08-28T15:54:45.573Z,45.90
2018-08-28T15:57:21.694Z,47.20
2018-08-28T16:00:01.442Z,45.30
2018-08-28T16:02:39.085Z,45.20
2018-08-28T16:05:19.942Z,45.80
2018-08-28T16:07:59.653Z,45.40
2018-08-28T16:10:38.583Z,45.50
2018-08-28T16:13:17.621Z,46.10
2018-08-28T16:15:57.369Z,46.00
2018-08-28T16:18:35.265Z,46.20
2018-08-28T16:21:15.198Z,45.60
2018-08-28T16:23:56.329Z,46.50
2018-08-28T16:26:36.113Z,46.00
2018-08-28T16:29:16.263Z,46.00
2018-08-28T16:31:47.683Z,46.40
2018-08-28T16:34:18.342Z,46.70
2018-08-28T16:36:58.207Z,46.80
2018-08-28T16:39:29.413Z,47.50
2018-08-28T16:42:02.349Z,48.00
2018-08-28T16:44:33.380Z,48.40
2018-08-28T16:47:04.479Z,48.20
2018-08-28T16:49:35.640Z,49.50
2018-08-28T16:52:08.119Z,48.40
2018-08-28T16:54:39.899Z,49.30
2018-08-28T16:57:13.379Z,49.00
2018-08-28T16:59:44.922Z,49.00
2018-08-28T17:02:25.043Z,50.30
2018-08-28T17:04:57.184Z,50.00
2018-08-28T17:07:28.535Z,50.90
2018-08-28T17:10:00.164Z,51.60
2018-08-28T17:12:31.044Z,51.00
2018-08-28T17:15:03.294Z,51.40
2018-08-28T17:17:37.883Z,51.00
2018-08-28T17:20:08.644Z,51.40
2018-08-28T17:22:41.643Z,51.70
2018-08-28T17:25:18.963Z,53.20
2018-08-28T17:27:49.753Z,54.50
2018-08-28T17:30:21.273Z,53.20
2018-08-28T17:32:51.753Z,54.60
2018-08-28T17:35:27.144Z,55.00
2018-08-28T17:37:59.813Z,55.80
2018-08-28T17:40:30.663Z,55.50
2018-08-28T17:43:01.933Z,55.70
2018-08-28T17:45:33.666Z,56.20
2018-08-28T17:48:04.953Z,56.60
2018-08-28T17:50:36.373Z,56.00
2018-08-28T17:53:07.423Z,57.00
2018-08-28T17:55:43.934Z,57.80
2018-08-28T17:58:15.326Z,58.00
2018-08-28T18:00:46.703Z,58.40
2018-08-28T18:03:17.684Z,59.10
2018-08-28T18:05:51.543Z,59.00
2018-08-28T18:08:23.896Z,59.50
2018-08-28T18:10:55.343Z,59.30
2018-08-28T18:13:26.154Z,59.50
2018-08-28T18:15:59.107Z,60.20
2018-08-28T18:18:29.823Z,60.00
2018-08-28T18:21:01.845Z,60.40
2018-08-28T18:23:33.226Z,60.40
2018-08-28T18:26:14.614Z,60.80
2018-08-28T18:28:45.549Z,61.20
2018-08-28T18:31:16.960Z,62.10
2018-08-28T18:33:48.324Z,62.10
2018-08-28T18:36:19.254Z,62.60
2018-08-28T18:38:56.632Z,63.00
2018-08-28T18:41:28.625Z,63.40
2018-08-28T18:43:59.944Z,63.20
2018-08-28T18:46:33.124Z,63.40
2018-08-28T18:49:13.281Z,64.00
2018-08-28T18:51:52.815Z,64.10
2018-08-28T18:54:32.711Z,64.50
2018-08-28T18:57:13.220Z,64.90
2018-08-28T18:59:53.041Z,65.20
2018-08-28T19:02:30.221Z,65.80
2018-08-28T19:05:10.723Z,66.00
2018-08-28T19:07:50.496Z,66.20
2018-08-28T19:10:30.462Z,66.80
2018-08-28T19:13:09.994Z,67.00
2018-08-28T19:15:41.993Z,67.30
2018-08-28T19:18:21.872Z,67.80
2018-08-28T19:21:02.073Z,68.20
2018-08-28T19:23:42.365Z,68.40
2018-08-28T19:26:23.204Z,68.50
2018-08-28T19:29:03.338Z,68.80
2018-08-28T19:31:43.121Z,68.80
2018-08-28T19:34:24.402Z,69.70
2018-08-28T19:37:04.299Z,69.40
2018-08-28T19:39:44.124Z,69.10
2018-08-28T19:42:15.943Z,69.20
2018-08-28T19:44:54.319Z,69.30
2018-08-28T19:47:34.299Z,69.40
2018-08-28T19:50:14.584Z,69.20
2018-08-28T19:52:54.677Z,69.50
2018-08-28T19:55:34.477Z,69.90
2018-08-28T19:58:14.699Z,70.00
2018-08-28T20:00:54.167Z,69.90
2018-08-28T20:03:33.494Z,70.00
2018-08-28T20:06:09.501Z,70.10
2018-08-28T20:08:49.029Z,70.50
2018-08-28T20:11:29.165Z,70.40
2018-08-28T20:14:09.865Z,70.70
2018-08-28T20:16:49.101Z,70.80
2018-08-28T20:19:20.984Z,70.80
2018-08-28T20:21:59.909Z,71.00
2018-08-28T20:24:40.314Z,71.30
2018-08-28T20:27:20.053Z,71.30
2018-08-28T20:29:59.481Z,71.40
2018-08-28T20:32:39.458Z,71.60
2018-08-28T20:35:15.676Z,71.90
2018-08-28T20:37:53.100Z,71.70
2018-08-28T20:40:32.578Z,71.90
2018-08-28T20:43:12.680Z,71.40
2018-08-28T20:45:52.597Z,71.50
2018-08-28T20:48:32.781Z,71.50
2018-08-28T20:51:12.416Z,71.80
2018-08-28T20:53:52.014Z,71.50
2018-08-28T20:56:25.023Z,71.70
2018-08-28T20:59:01.363Z,72.10
2018-08-28T21:01:38.653Z,71.70
2018-08-28T21:04:18.006Z,71.30
2018-08-28T21:06:57.989Z,71.50
2018-08-28T21:09:37.934Z,71.00
2018-08-28T21:12:17.423Z,71.30
2018-08-28T21:14:57.215Z,71.30
2018-08-28T21:17:36.793Z,71.20
2018-08-28T21:20:09.552Z,71.30
2018-08-28T21:22:45.478Z,71.40
2018-08-28T21:25:18.773Z,71.40
2018-08-28T21:27:50.043Z,71.40
2018-08-28T21:30:22.169Z,71.50
2018-08-28T21:32:53.859Z,71.30
2018-08-28T21:35:24.939Z,71.20
2018-08-28T21:37:56.056Z,71.50
2018-08-28T21:40:28.350Z,71.70
2018-08-28T21:42:59.700Z,71.60
2018-08-28T21:45:31.775Z,70.90
2018-08-28T21:48:11.731Z,70.80
2018-08-28T21:50:44.431Z,71.10
2018-08-28T21:53:16.071Z,71.30
2018-08-28T21:55:47.373Z,71.50
2018-08-28T21:58:19.095Z,71.70
2018-08-28T22:01:01.434Z,71.50
2018-08-28T22:03:33.024Z,71.80
2018-08-28T22:06:04.157Z,71.90
2018-08-28T22:08:36.183Z,72.00
2018-08-28T22:11:11.903Z,72.20
2018-08-28T22:13:43.426Z,72.40
2018-08-28T22:16:23.330Z,72.30
2018-08-28T22:18:55.280Z,72.50
2018-08-28T22:21:25.999Z,72.60
2018-08-28T22:23:57.520Z,72.50
2018-08-28T22:26:28.370Z,72.50
2018-08-28T22:28:59.520Z,72.30
2018-08-28T22:31:31.001Z,72.30
2018-08-28T22:34:02.390Z,72.80
2018-08-28T22:36:34.510Z,72.80
2018-08-28T22:39:07.376Z,73.20
2018-08-28T22:41:39.786Z,73.00
2018-08-28T22:44:11.095Z,72.90
2018-08-28T22:46:42.387Z,72.70
2018-08-28T22:49:14.295Z,72.60
2018-08-28T22:51:46.196Z,72.80
2018-08-28T22:54:18.876Z,73.10
2018-08-28T22:56:50.137Z,73.30
2018-08-28T22:59:21.487Z,73.60
2018-08-28T23:01:52.739Z,73.10
2018-08-28T23:04:25.406Z,73.40
2018-08-28T23:06:56.377Z,74.00
2018-08-28T23:09:28.016Z,73.40
2018-08-28T23:11:58.866Z,73.90
2018-08-28T23:14:30.336Z,73.60
2018-08-28T23:17:01.671Z,73.60
2018-08-28T23:19:34.142Z,73.70
2018-08-28T23:22:05.866Z,73.70
2018-08-28T23:24:38.336Z,73.70
2018-08-28T23:27:10.948Z,73.80
2018-08-28T23:29:42.644Z,74.00
2018-08-28T23:32:15.257Z,74.00
2018-08-28T23:34:47.416Z,74.00
2018-08-28T23:37:19.197Z,74.10
2018-08-28T23:39:51.346Z,74.10
2018-08-28T23:42:22.136Z,74.10
2018-08-28T23:44:53.397Z,74.20
2018-08-28T23:47:25.109Z,74.00
2018-08-28T23:49:56.176Z,74.20
2018-08-28T23:52:29.396Z,74.10
2018-08-28T23:55:02.197Z,73.90
2018-08-28T23:57:34.067Z,73.90
